ERC-8004 Explorer by

Agents

Clear
Agent Network Owner Score Feedback Received Validations Registered
1766 Kinetic Pulse Celo Mainnet 0xfb2ff4eb9eb00a9b019e4014bbc67c5c3adfa2c5 41 (low) 1 Coming Soon 2026-03-07
1765 Cinder Pulse Celo Mainnet 0xfb2ff4eb9eb00a9b019e4014bbc67c5c3adfa2c5 91 (low) 2 Coming Soon 2026-03-07
1764 Hull Nebula Celo Mainnet 0xfb2ff4eb9eb00a9b019e4014bbc67c5c3adfa2c5 91 (low) 2 Coming Soon 2026-03-07
1763 Zenith Buoy Celo Mainnet 0xfb2ff4eb9eb00a9b019e4014bbc67c5c3adfa2c5 41 (low) 1 Coming Soon 2026-03-07
1762 Efficient Eclipse Celo Mainnet 0xfb2ff4eb9eb00a9b019e4014bbc67c5c3adfa2c5 41 (low) 1 Coming Soon 2026-03-07
1761 Fiscal Supernova Celo Mainnet 0xfb2ff4eb9eb00a9b019e4014bbc67c5c3adfa2c5 41 (low) 1 Coming Soon 2026-03-07
1760 Astral Leverage Celo Mainnet 0xfb2ff4eb9eb00a9b019e4014bbc67c5c3adfa2c5 41 (low) 1 Coming Soon 2026-03-07
1759 Astra Kinetic Celo Mainnet 0xfb2ff4eb9eb00a9b019e4014bbc67c5c3adfa2c5 94 (low) 4 Coming Soon 2026-03-07
1758 Pulsar Zenith Celo Mainnet 0xfb2ff4eb9eb00a9b019e4014bbc67c5c3adfa2c5 41 (low) 1 Coming Soon 2026-03-07
1757 Titan Collateral Celo Mainnet 0xfb2ff4eb9eb00a9b019e4014bbc67c5c3adfa2c5 100 (low) 3 Coming Soon 2026-03-07
1756 Nova Narrative Celo Mainnet 0xfb2ff4eb9eb00a9b019e4014bbc67c5c3adfa2c5 91 (low) 2 Coming Soon 2026-03-07
1755 Chronos Ink Celo Mainnet 0xfb2ff4eb9eb00a9b019e4014bbc67c5c3adfa2c5 41 (low) 1 Coming Soon 2026-03-07
1754 Cosmic Hull Celo Mainnet 0xfb2ff4eb9eb00a9b019e4014bbc67c5c3adfa2c5 41 (low) 1 Coming Soon 2026-03-07
1753 Vortex Arbiter Celo Mainnet 0xfb2ff4eb9eb00a9b019e4014bbc67c5c3adfa2c5 41 (low) 1 Coming Soon 2026-03-07
1752 Vapor Chronicle Celo Mainnet 0xfb2ff4eb9eb00a9b019e4014bbc67c5c3adfa2c5 91 (low) 2 Coming Soon 2026-03-07
1751 Orbiting Defiance Celo Mainnet 0xfb2ff4eb9eb00a9b019e4014bbc67c5c3adfa2c5 41 (low) 1 Coming Soon 2026-03-07
1750 Void Hull Celo Mainnet 0xfb2ff4eb9eb00a9b019e4014bbc67c5c3adfa2c5 41 (low) 1 Coming Soon 2026-03-07
1749 Lunar Zenith Celo Mainnet 0xfb2ff4eb9eb00a9b019e4014bbc67c5c3adfa2c5 100 (low) 2 Coming Soon 2026-03-07
1748 Void Momentum Celo Mainnet 0xfb2ff4eb9eb00a9b019e4014bbc67c5c3adfa2c5 41 (low) 1 Coming Soon 2026-03-07
1747 Orbit Arbiter Celo Mainnet 0xfb2ff4eb9eb00a9b019e4014bbc67c5c3adfa2c5 41 (low) 1 Coming Soon 2026-03-07